METAR Data
IDs: Format: Raw Decoded Include TAF

Data at: 0145 UTC 10 Dec 2022

METAR for:KIND (Indianapolis Intl, IN, US)
Text:KIND 100054Z 03004KT 4SM BR OVC010 07/06 A3012 RMK AO2 SLP204 T00720061 $
Temperature: 7.2°C ( 45°F)
Dewpoint: 6.1°C ( 43°F) [RH = 93%]
Pressure (altimeter):30.12 inches Hg (1020.1 mb) [Sea level pressure: 1020.4 mb]
Winds:from the NNE (30 degrees) at 5 MPH (4 knots; 2.1 m/s)
Visibility: 4 sm ( 6 km)
Ceiling:1000 feet AGL
Clouds: overcast cloud deck at 1000 feet AGL
Weather:BR (mist)
QC Flag:SOME DATA ABOVE MAY BE INACCURATE!!!"$" is an indication the sensor requires maintenance.